createdAt,value
2023-05-21T00:02:19.883Z,62.67
2023-05-21T00:04:47.113Z,62.84
2023-05-21T00:07:15.276Z,62.78
2023-05-21T00:09:41.833Z,62.97
2023-05-21T00:12:09.261Z,63.52
2023-05-21T00:14:36.359Z,63.55
2023-05-21T00:17:04.451Z,63.36
2023-05-21T00:19:32.708Z,63.80
2023-05-21T00:22:02.243Z,63.52
2023-05-21T00:24:29.324Z,63.72
2023-05-21T00:26:56.315Z,63.99
2023-05-21T00:29:25.061Z,63.76
2023-05-21T00:31:52.300Z,63.90
2023-05-21T00:34:19.082Z,64.09
2023-05-21T00:36:46.452Z,64.26
2023-05-21T00:39:13.815Z,64.34
2023-05-21T00:41:40.405Z,64.32
2023-05-21T00:44:07.393Z,64.79
2023-05-21T00:46:34.289Z,64.71
2023-05-21T00:49:01.803Z,64.77
2023-05-21T00:51:30.340Z,64.78
2023-05-21T00:53:58.766Z,65.11
2023-05-21T00:56:27.216Z,65.08
2023-05-21T00:58:57.144Z,65.14
2023-05-21T01:01:25.997Z,65.67
2023-05-21T01:03:57.511Z,65.42
2023-05-21T01:06:24.017Z,65.51
2023-05-21T01:08:50.957Z,65.99
2023-05-21T01:11:18.798Z,65.74
2023-05-21T01:13:46.715Z,65.94
2023-05-21T01:16:13.697Z,66.15
2023-05-21T01:18:43.753Z,66.60
2023-05-21T01:21:10.540Z,66.15
2023-05-21T01:23:37.145Z,66.76
2023-05-21T01:26:03.681Z,66.53
2023-05-21T01:28:34.564Z,66.74
2023-05-21T01:31:12.432Z,66.89
2023-05-21T01:33:45.930Z,66.66
2023-05-21T01:36:34.707Z,66.59
2023-05-21T01:39:07.932Z,66.91
2023-05-21T01:41:39.330Z,67.16
2023-05-21T01:44:08.737Z,67.83
2023-05-21T01:46:38.884Z,67.26
2023-05-21T01:49:07.032Z,67.44
2023-05-21T01:51:34.595Z,67.27
2023-05-21T01:54:01.586Z,67.64
2023-05-21T01:56:28.555Z,67.63
2023-05-21T01:58:59.853Z,67.80
2023-05-21T02:01:27.457Z,68.00
2023-05-21T02:03:54.104Z,67.98
2023-05-21T02:06:20.845Z,68.10
2023-05-21T02:08:48.456Z,68.22
2023-05-21T02:11:14.990Z,68.44
2023-05-21T02:13:42.728Z,68.82
2023-05-21T02:16:14.740Z,68.80
2023-05-21T02:18:43.639Z,69.26
2023-05-21T02:21:13.670Z,69.02
2023-05-21T02:23:40.165Z,69.15
2023-05-21T02:26:06.672Z,69.63
2023-05-21T02:28:34.254Z,69.87
2023-05-21T02:31:01.188Z,70.04
2023-05-21T02:33:27.759Z,69.94
2023-05-21T02:35:54.232Z,70.13
2023-05-21T02:38:23.114Z,70.13
2023-05-21T02:40:53.418Z,70.59
2023-05-21T02:43:20.189Z,70.49
2023-05-21T02:45:46.711Z,70.51
2023-05-21T02:48:13.363Z,70.95
2023-05-21T02:50:39.968Z,70.99
2023-05-21T02:53:07.279Z,71.62
2023-05-21T02:55:33.845Z,71.57
2023-05-21T02:58:00.474Z,71.58
2023-05-21T03:00:27.041Z,71.77
2023-05-21T03:02:53.662Z,71.98
2023-05-21T03:05:20.789Z,72.23
2023-05-21T03:07:47.371Z,72.02
2023-05-21T03:10:13.872Z,72.12
2023-05-21T03:12:40.335Z,72.07
2023-05-21T03:15:07.250Z,72.54
2023-05-21T03:17:33.755Z,72.42
2023-05-21T03:20:00.265Z,73.04
2023-05-21T03:22:26.776Z,72.78
2023-05-21T03:24:53.634Z,72.89
2023-05-21T03:27:20.086Z,73.38
2023-05-21T03:29:46.552Z,73.68
2023-05-21T03:32:13.510Z,73.30
2023-05-21T03:34:40.846Z,73.47
2023-05-21T03:37:07.346Z,73.92
2023-05-21T03:39:33.859Z,73.67
2023-05-21T03:42:00.330Z,74.25
2023-05-21T03:44:26.820Z,74.06
2023-05-21T03:46:53.413Z,74.18
2023-05-21T03:49:20.788Z,74.67
2023-05-21T03:51:47.353Z,74.57
2023-05-21T03:54:13.902Z,74.95
2023-05-21T03:56:40.573Z,74.93
2023-05-21T03:59:08.298Z,74.88
2023-05-21T04:01:34.977Z,74.94
2023-05-21T04:04:02.052Z,75.52
2023-05-21T04:06:30.112Z,75.34
2023-05-21T04:08:56.621Z,75.75
2023-05-21T04:11:24.684Z,76.09
2023-05-21T04:13:51.636Z,76.24
2023-05-21T04:16:19.237Z,76.39
2023-05-21T04:18:46.814Z,76.56
2023-05-21T04:21:13.650Z,76.89
2023-05-21T04:23:40.185Z,76.96
2023-05-21T04:26:07.701Z,77.13
2023-05-21T04:28:35.288Z,76.82
2023-05-21T04:31:01.934Z,77.49
2023-05-21T04:33:28.628Z,77.19
2023-05-21T04:35:55.548Z,77.03
2023-05-21T04:38:22.043Z,77.51
2023-05-21T04:40:51.929Z,77.60
2023-05-21T04:43:27.988Z,77.45
2023-05-21T04:45:55.058Z,77.12
2023-05-21T04:48:24.657Z,77.31
2023-05-21T04:50:52.043Z,77.15
2023-05-21T04:53:18.547Z,77.69
2023-05-21T04:55:45.111Z,77.68
2023-05-21T04:58:18.384Z,77.97
2023-05-21T05:00:50.760Z,78.02
2023-05-21T05:03:18.083Z,78.23
2023-05-21T05:05:44.624Z,78.02
2023-05-21T05:08:13.890Z,78.00
2023-05-21T05:10:41.957Z,77.92
2023-05-21T05:13:08.842Z,78.06
2023-05-21T05:15:35.607Z,78.56
2023-05-21T05:18:02.375Z,78.21
2023-05-21T05:20:28.856Z,78.47
2023-05-21T05:22:55.369Z,78.40
2023-05-21T05:25:21.935Z,78.56
2023-05-21T05:27:48.386Z,78.33
2023-05-21T05:30:15.708Z,78.58
2023-05-21T05:32:42.254Z,78.46
2023-05-21T05:35:09.499Z,78.46
2023-05-21T05:37:36.198Z,78.49
2023-05-21T05:40:03.066Z,78.61
2023-05-21T05:42:29.577Z,78.69
2023-05-21T05:44:56.082Z,78.78
2023-05-21T05:47:22.651Z,78.95
2023-05-21T05:49:49.129Z,78.43
2023-05-21T05:52:16.126Z,78.66
2023-05-21T05:54:42.587Z,78.35
2023-05-21T05:57:09.122Z,78.43
2023-05-21T05:59:35.759Z,77.89
2023-05-21T06:02:02.248Z,78.24
2023-05-21T06:04:30.197Z,78.04
2023-05-21T06:06:57.696Z,78.26
2023-05-21T06:09:24.807Z,78.38
2023-05-21T06:11:51.375Z,78.11
2023-05-21T06:14:17.907Z,78.09
2023-05-21T06:16:44.443Z,78.20
2023-05-21T06:19:11.005Z,77.84
2023-05-21T06:21:37.569Z,77.46
2023-05-21T06:24:04.207Z,77.34
2023-05-21T06:26:30.848Z,77.04
2023-05-21T06:28:57.505Z,76.79
2023-05-21T06:31:24.625Z,76.65
2023-05-21T06:33:51.362Z,76.05
2023-05-21T06:36:18.656Z,75.19
2023-05-21T06:38:45.238Z,75.33
2023-05-21T06:41:11.702Z,75.94
2023-05-21T06:43:38.161Z,75.33
2023-05-21T06:46:04.741Z,74.95
2023-05-21T06:48:31.234Z,74.78
2023-05-21T06:50:57.769Z,74.50
2023-05-21T06:53:24.344Z,75.13
2023-05-21T06:55:53.837Z,74.53
2023-05-21T06:58:21.556Z,75.04
2023-05-21T07:00:48.626Z,75.31
2023-05-21T07:03:15.873Z,74.59
2023-05-21T07:05:42.495Z,74.78
2023-05-21T07:08:11.361Z,74.73
2023-05-21T07:10:38.609Z,74.80
2023-05-21T07:13:05.137Z,74.55
2023-05-21T07:15:31.678Z,74.58
2023-05-21T07:17:58.217Z,73.54
2023-05-21T07:20:24.721Z,73.70
2023-05-21T07:22:51.333Z,73.41
2023-05-21T07:25:17.894Z,73.23
2023-05-21T07:27:46.672Z,73.19
2023-05-21T07:30:14.426Z,72.97
2023-05-21T07:32:41.116Z,72.55
2023-05-21T07:35:08.181Z,72.30
2023-05-21T07:37:34.954Z,71.63
2023-05-21T07:40:01.662Z,72.20
2023-05-21T07:42:28.221Z,71.89
2023-05-21T07:44:54.749Z,71.18
2023-05-21T07:47:21.382Z,71.44
2023-05-21T07:49:47.910Z,70.91
2023-05-21T07:52:14.415Z,70.15
2023-05-21T07:54:41.092Z,70.54
2023-05-21T07:57:07.580Z,69.88
2023-05-21T07:59:34.083Z,69.81
2023-05-21T08:02:00.784Z,70.00
2023-05-21T08:04:27.410Z,69.42
2023-05-21T08:06:53.971Z,69.29
2023-05-21T08:09:20.444Z,69.63
2023-05-21T08:11:46.938Z,69.40
2023-05-21T08:14:13.562Z,70.00
2023-05-21T08:16:40.288Z,69.13
2023-05-21T08:19:06.919Z,69.51
2023-05-21T08:21:34.066Z,69.75
2023-05-21T08:24:00.836Z,70.57
2023-05-21T08:26:28.138Z,68.99
2023-05-21T08:28:54.871Z,69.64
2023-05-21T08:31:21.682Z,69.54
2023-05-21T08:33:52.673Z,69.35
2023-05-21T08:36:19.700Z,69.21
2023-05-21T08:38:46.300Z,68.66
2023-05-21T08:41:14.020Z,69.07
2023-05-21T08:43:41.044Z,68.85
2023-05-21T08:46:09.939Z,68.99
2023-05-21T08:48:37.341Z,68.98
2023-05-21T08:51:06.230Z,68.99
2023-05-21T08:53:36.609Z,69.01
2023-05-21T08:56:03.866Z,68.46
2023-05-21T08:58:33.621Z,68.01
2023-05-21T09:01:00.311Z,67.07
2023-05-21T09:03:29.382Z,67.04
2023-05-21T09:05:57.063Z,66.82
2023-05-21T09:08:32.739Z,66.33
2023-05-21T09:11:01.761Z,66.74
2023-05-21T09:13:29.105Z,67.37
2023-05-21T09:15:55.977Z,65.93
2023-05-21T09:18:22.569Z,66.65
2023-05-21T09:20:49.367Z,66.00
2023-05-21T09:23:17.899Z,65.18
2023-05-21T09:25:48.765Z,64.91
2023-05-21T09:28:17.107Z,64.84
2023-05-21T09:30:45.449Z,64.91
2023-05-21T09:33:12.701Z,64.82
2023-05-21T09:35:46.502Z,64.26
2023-05-21T09:38:13.159Z,64.47
2023-05-21T09:40:44.546Z,63.96
2023-05-21T09:43:14.890Z,62.41
2023-05-21T09:46:01.968Z,63.05
2023-05-21T09:48:43.064Z,63.02
2023-05-21T09:51:11.898Z,62.22
2023-05-21T09:53:53.686Z,61.93
2023-05-21T09:56:26.483Z,62.65
2023-05-21T09:58:57.713Z,63.41
2023-05-21T10:01:25.029Z,62.84
2023-05-21T10:03:58.855Z,61.69
2023-05-21T10:06:31.620Z,60.62
2023-05-21T10:09:04.633Z,61.85
2023-05-21T10:11:33.170Z,60.95
2023-05-21T10:14:22.570Z,61.77
2023-05-21T10:16:50.422Z,60.76
2023-05-21T10:19:17.488Z,60.95
2023-05-21T10:21:45.800Z,62.02
2023-05-21T10:24:13.681Z,61.72
2023-05-21T10:26:41.410Z,61.50
2023-05-21T10:29:08.979Z,60.80
2023-05-21T10:31:37.430Z,60.99
2023-05-21T10:34:06.059Z,62.01
2023-05-21T10:36:34.302Z,61.01
2023-05-21T10:39:02.580Z,60.16
2023-05-21T10:41:40.623Z,60.25
2023-05-21T10:44:29.996Z,61.05
2023-05-21T10:47:17.988Z,61.90
2023-05-21T10:50:16.580Z,60.45
2023-05-21T10:53:09.357Z,61.04
2023-05-21T10:56:12.815Z,61.72
2023-05-21T10:58:41.864Z,60.16
2023-05-21T11:01:08.876Z,60.02
2023-05-21T11:03:37.948Z,60.87
2023-05-21T11:06:08.470Z,59.47
2023-05-21T11:08:37.248Z,59.51
2023-05-21T11:11:04.060Z,61.07
2023-05-21T11:13:50.573Z,59.88
2023-05-21T11:16:18.002Z,59.24
2023-05-21T11:18:47.543Z,59.77
2023-05-21T11:21:16.197Z,59.70
2023-05-21T11:23:52.201Z,59.71
2023-05-21T11:26:20.869Z,58.87
2023-05-21T11:28:51.250Z,58.61
2023-05-21T11:31:25.910Z,58.31
2023-05-21T11:34:11.236Z,57.60
2023-05-21T11:36:38.717Z,58.66
2023-05-21T11:39:10.643Z,58.64
2023-05-21T11:42:04.149Z,58.22
2023-05-21T11:44:48.560Z,57.91
2023-05-21T11:47:19.353Z,57.50
2023-05-21T11:49:46.589Z,57.58
2023-05-21T11:52:14.555Z,56.56
2023-05-21T11:54:46.155Z,56.93
2023-05-21T11:57:16.086Z,55.75
2023-05-21T11:59:42.901Z,57.41
2023-05-21T12:02:09.483Z,57.05
2023-05-21T12:04:36.661Z,56.29
2023-05-21T12:07:10.009Z,56.52
2023-05-21T12:09:44.725Z,55.97
2023-05-21T12:12:14.148Z,56.04
2023-05-21T12:14:44.527Z,55.46
2023-05-21T12:17:13.444Z,55.83
2023-05-21T12:19:40.919Z,56.97
2023-05-21T12:22:08.072Z,56.33
2023-05-21T12:24:35.680Z,55.14
2023-05-21T12:27:09.359Z,56.38
2023-05-21T12:29:38.366Z,56.23
2023-05-21T12:32:07.339Z,55.46
2023-05-21T12:34:54.680Z,54.96
2023-05-21T12:37:24.416Z,56.17
2023-05-21T12:39:52.957Z,55.34
2023-05-21T12:42:32.443Z,55.85
2023-05-21T12:44:59.012Z,55.19
2023-05-21T12:47:26.973Z,55.48
2023-05-21T12:50:04.765Z,56.04
2023-05-21T12:52:31.432Z,55.41
2023-05-21T12:54:58.634Z,56.86
2023-05-21T12:57:36.076Z,55.57
2023-05-21T13:00:06.545Z,54.80
2023-05-21T13:02:40.346Z,55.34
2023-05-21T13:05:09.086Z,55.16
2023-05-21T13:07:38.219Z,55.19
2023-05-21T13:10:06.177Z,55.31
2023-05-21T13:12:34.147Z,55.98
2023-05-21T13:15:04.038Z,55.40
2023-05-21T13:17:30.914Z,55.53
2023-05-21T13:20:10.197Z,55.25
2023-05-21T13:22:57.821Z,55.95
2023-05-21T13:25:29.090Z,54.94
2023-05-21T13:27:56.892Z,56.34
2023-05-21T13:30:23.553Z,55.92
2023-05-21T13:32:50.279Z,55.06
2023-05-21T13:35:17.535Z,54.75
2023-05-21T13:37:44.635Z,55.18
2023-05-21T13:40:14.530Z,55.12
2023-05-21T13:42:41.400Z,54.03
2023-05-21T13:45:10.358Z,54.84
2023-05-21T13:47:39.925Z,55.97
2023-05-21T13:50:08.396Z,55.15
2023-05-21T13:52:35.144Z,54.59
2023-05-21T13:55:01.635Z,54.11
2023-05-21T13:57:30.682Z,55.04
2023-05-21T13:59:57.965Z,55.70
2023-05-21T14:02:24.666Z,55.01
2023-05-21T14:04:51.305Z,54.85
2023-05-21T14:07:17.983Z,54.81
2023-05-21T14:09:44.498Z,55.32
2023-05-21T14:12:11.918Z,55.52
2023-05-21T14:14:38.471Z,54.72
2023-05-21T14:17:06.504Z,54.80
2023-05-21T14:19:33.157Z,53.96
2023-05-21T14:21:59.973Z,54.11
2023-05-21T14:24:26.613Z,54.02
2023-05-21T14:26:53.175Z,54.75
2023-05-21T14:29:19.689Z,53.79
2023-05-21T14:31:46.390Z,54.52
2023-05-21T14:34:12.931Z,54.14
2023-05-21T14:36:39.564Z,54.27
2023-05-21T14:39:06.148Z,54.37
2023-05-21T14:41:32.694Z,55.04
2023-05-21T14:43:59.161Z,54.67
2023-05-21T14:46:26.042Z,54.15
2023-05-21T14:48:52.961Z,54.78
2023-05-21T14:51:19.697Z,55.18
2023-05-21T14:53:46.201Z,56.01
2023-05-21T14:56:12.775Z,54.51
2023-05-21T14:58:39.280Z,55.93
2023-05-21T15:01:05.935Z,54.69
2023-05-21T15:03:32.531Z,55.43
2023-05-21T15:05:59.264Z,54.32
2023-05-21T15:10:52.364Z,55.02
2023-05-21T15:13:18.893Z,55.61
2023-05-21T15:15:45.478Z,54.25
2023-05-21T15:18:12.040Z,55.14
2023-05-21T15:20:38.585Z,55.19
2023-05-21T15:23:15.954Z,53.80
2023-05-21T15:25:43.767Z,54.41
2023-05-21T15:28:11.800Z,54.64
2023-05-21T15:30:38.296Z,55.08
2023-05-21T15:33:04.944Z,55.39
2023-05-21T15:35:31.605Z,54.92
2023-05-21T15:37:58.217Z,54.95
2023-05-21T15:40:26.931Z,55.39
2023-05-21T15:42:53.916Z,55.67
2023-05-21T15:45:20.603Z,54.92
2023-05-21T15:47:47.254Z,55.16
2023-05-21T15:50:13.856Z,55.69
2023-05-21T15:52:42.183Z,56.00
2023-05-21T15:55:09.308Z,56.01
2023-05-21T15:57:35.791Z,55.08
2023-05-21T16:00:02.364Z,55.63
2023-05-21T16:02:29.002Z,55.77
2023-05-21T16:04:55.600Z,55.66
2023-05-21T16:07:23.328Z,55.24
2023-05-21T16:09:49.957Z,55.30
2023-05-21T16:12:16.830Z,55.16
2023-05-21T16:14:43.351Z,56.03
2023-05-21T16:17:09.908Z,55.75
2023-05-21T16:19:36.540Z,56.08
2023-05-21T16:22:03.154Z,54.85
2023-05-21T16:24:29.779Z,55.39
2023-05-21T16:26:56.443Z,54.59
2023-05-21T16:29:23.096Z,54.68
2023-05-21T16:31:49.615Z,54.66
2023-05-21T16:34:16.400Z,55.11
2023-05-21T16:36:43.043Z,55.06
2023-05-21T16:39:09.592Z,55.70
2023-05-21T16:41:36.148Z,55.26
2023-05-21T16:44:02.952Z,55.31
2023-05-21T16:46:29.505Z,55.75
2023-05-21T16:48:56.035Z,56.20
2023-05-21T16:51:22.622Z,57.00
2023-05-21T16:53:49.143Z,56.11
2023-05-21T16:56:15.770Z,55.19
2023-05-21T16:58:42.312Z,55.35
2023-05-21T17:01:08.862Z,54.54
2023-05-21T17:03:35.688Z,54.54
2023-05-21T17:06:02.233Z,54.33
2023-05-21T17:08:28.745Z,53.37
2023-05-21T17:10:55.661Z,53.44
2023-05-21T17:13:23.269Z,53.55
2023-05-21T17:15:53.464Z,53.96
2023-05-21T17:18:20.095Z,53.53
2023-05-21T17:20:46.603Z,53.43
2023-05-21T17:23:13.204Z,53.63
2023-05-21T17:25:40.848Z,53.61
2023-05-21T17:28:07.667Z,53.88
2023-05-21T17:30:34.307Z,53.64
2023-05-21T17:33:03.612Z,53.65
2023-05-21T17:35:30.696Z,54.04
2023-05-21T17:37:57.227Z,54.66
2023-05-21T17:40:24.728Z,54.63
2023-05-21T17:42:52.375Z,56.42
2023-05-21T17:45:19.197Z,56.29
2023-05-21T17:47:45.896Z,56.74
2023-05-21T17:50:12.544Z,56.58
2023-05-21T17:52:39.153Z,56.81
2023-05-21T17:55:06.267Z,56.78
2023-05-21T17:57:32.755Z,57.10
2023-05-21T17:59:59.240Z,57.15
2023-05-21T18:02:27.480Z,58.40
2023-05-21T18:04:54.161Z,58.95
2023-05-21T18:07:22.146Z,59.68
2023-05-21T18:09:48.743Z,60.17
2023-05-21T18:12:15.784Z,60.12
2023-05-21T18:14:42.337Z,60.11
2023-05-21T18:17:08.887Z,60.69
2023-05-21T18:19:35.661Z,61.78
2023-05-21T18:22:02.320Z,61.56
2023-05-21T18:24:28.859Z,62.04
2023-05-21T18:26:55.397Z,61.77
2023-05-21T18:29:21.862Z,61.97
2023-05-21T18:31:48.500Z,62.37
2023-05-21T18:34:16.846Z,63.24
2023-05-21T18:36:43.381Z,62.92
2023-05-21T18:39:11.686Z,63.32
2023-05-21T18:41:38.972Z,63.24
2023-05-21T18:44:06.151Z,63.93
2023-05-21T18:46:32.805Z,63.90
2023-05-21T18:48:59.825Z,64.30
2023-05-21T18:51:26.543Z,64.55
2023-05-21T18:53:53.179Z,64.58
2023-05-21T18:56:19.689Z,64.77
2023-05-21T18:58:47.533Z,64.95
2023-05-21T19:01:14.338Z,65.76
2023-05-21T19:03:41.020Z,65.42
2023-05-21T19:06:08.706Z,65.51
2023-05-21T19:08:35.163Z,65.91
2023-05-21T19:11:01.774Z,66.15
2023-05-21T19:13:28.644Z,66.86
2023-05-21T19:15:55.462Z,67.06
2023-05-21T19:18:21.964Z,67.40
2023-05-21T19:20:48.496Z,67.42
2023-05-21T19:23:15.337Z,67.45
2023-05-21T19:25:42.104Z,67.62
2023-05-21T19:28:08.651Z,67.92
2023-05-21T19:30:36.458Z,68.23
2023-05-21T19:33:03.632Z,68.35
2023-05-21T19:35:30.649Z,68.55
2023-05-21T19:38:00.218Z,68.93
2023-05-21T19:40:30.841Z,69.04
2023-05-21T19:42:57.333Z,69.23
2023-05-21T19:45:25.334Z,69.63
2023-05-21T19:47:51.847Z,70.18
2023-05-21T19:50:19.150Z,70.21
2023-05-21T19:52:45.671Z,70.49
2023-05-21T19:55:14.018Z,70.45
2023-05-21T19:57:40.510Z,70.71
2023-05-21T20:00:10.220Z,71.25
2023-05-21T20:02:36.721Z,71.43
2023-05-21T20:05:03.347Z,71.75
2023-05-21T20:07:29.868Z,71.84
2023-05-21T20:09:56.452Z,72.21
2023-05-21T20:12:22.959Z,72.63
2023-05-21T20:14:50.439Z,72.69
2023-05-21T20:17:18.892Z,72.93
2023-05-21T20:19:48.691Z,73.04
2023-05-21T20:22:16.037Z,73.37
2023-05-21T20:24:43.176Z,74.22
2023-05-21T20:27:11.102Z,74.07
2023-05-21T20:29:37.656Z,74.65
2023-05-21T20:32:04.409Z,75.09
2023-05-21T20:34:31.901Z,75.27
2023-05-21T20:36:58.478Z,75.39
2023-05-21T20:39:27.841Z,75.37
2023-05-21T20:41:55.132Z,76.00
2023-05-21T20:44:22.376Z,76.01
2023-05-21T20:46:49.254Z,76.31
2023-05-21T20:49:17.621Z,76.26
2023-05-21T20:51:44.556Z,76.82
2023-05-21T20:54:11.729Z,76.58
2023-05-21T20:56:42.319Z,76.87
2023-05-21T20:59:11.052Z,77.01
2023-05-21T21:01:38.441Z,76.79
2023-05-21T21:04:05.303Z,76.90
2023-05-21T21:06:32.052Z,77.47
2023-05-21T21:08:58.638Z,77.77
2023-05-21T21:11:25.266Z,77.70
2023-05-21T21:13:54.913Z,78.37
2023-05-21T21:16:21.569Z,78.24
2023-05-21T21:18:48.081Z,78.21
2023-05-21T21:21:14.649Z,78.38
2023-05-21T21:23:41.160Z,79.01
2023-05-21T21:26:07.665Z,79.30
2023-05-21T21:28:34.149Z,79.27
2023-05-21T21:31:00.837Z,79.32
2023-05-21T21:33:28.427Z,79.31
2023-05-21T21:35:55.961Z,79.57
2023-05-21T21:38:22.414Z,79.49
2023-05-21T21:40:48.950Z,79.43
2023-05-21T21:43:15.484Z,80.13
2023-05-21T21:45:42.051Z,79.69
2023-05-21T21:48:08.595Z,79.91
2023-05-21T21:50:35.372Z,80.00
2023-05-21T21:53:03.616Z,80.42
2023-05-21T21:55:30.323Z,80.53
2023-05-21T21:57:56.867Z,80.34
2023-05-21T22:00:28.792Z,80.67
2023-05-21T22:02:55.644Z,80.48
2023-05-21T22:05:22.312Z,80.65
2023-05-21T22:07:48.921Z,81.39
2023-05-21T22:10:16.603Z,81.64
2023-05-21T22:12:44.866Z,81.77
2023-05-21T22:15:19.279Z,81.87
2023-05-21T22:17:47.747Z,81.91
2023-05-21T22:20:15.088Z,82.33
2023-05-21T22:22:41.570Z,82.38
2023-05-21T22:25:08.434Z,82.76
2023-05-21T22:27:34.968Z,83.02
2023-05-21T22:30:01.407Z,83.10
2023-05-21T22:32:27.899Z,83.58
2023-05-21T22:34:54.369Z,83.53
2023-05-21T22:37:21.169Z,83.85
2023-05-21T22:39:47.655Z,83.91
2023-05-21T22:42:14.177Z,83.98
2023-05-21T22:44:40.940Z,84.20
2023-05-21T22:47:09.502Z,84.52
2023-05-21T22:49:38.139Z,84.77
2023-05-21T22:52:06.370Z,84.99
2023-05-21T22:54:33.036Z,84.78
2023-05-21T22:57:01.154Z,85.09
2023-05-21T22:59:32.328Z,85.05
2023-05-21T23:01:59.281Z,85.30
2023-05-21T23:04:42.778Z,85.60
2023-05-21T23:07:13.601Z,85.20
2023-05-21T23:09:40.108Z,85.47
2023-05-21T23:12:07.336Z,85.73
2023-05-21T23:14:33.953Z,86.06
2023-05-21T23:17:04.558Z,86.01
2023-05-21T23:19:32.265Z,85.75
2023-05-21T23:22:00.174Z,85.76
2023-05-21T23:24:28.931Z,85.71
2023-05-21T23:26:56.719Z,85.70
2023-05-21T23:29:23.183Z,85.38
2023-05-21T23:31:52.274Z,85.54
2023-05-21T23:34:18.794Z,85.77
2023-05-21T23:36:45.317Z,87.11
2023-05-21T23:39:11.760Z,87.30
2023-05-21T23:41:38.718Z,89.36
2023-05-21T23:44:05.468Z,90.14
2023-05-21T23:46:31.935Z,93.48
2023-05-21T23:48:58.479Z,94.87
2023-05-21T23:58:53.654Z,94.51
